RJNA(METAR)
07/27 18:00
METAR RJNA 270900Z 36007KT 9999 FEW030 SCT070 BKN170 29/22 Q0997 RMK
1CU030 3AC070 6AC170 A2947=
戻る
トップページへ戻る
IMOC Co,.Ltd.